SLCA

Details ICAO SLCA
Name Camiri
Region Bolivia
Timezone America/La_Paz (UTC-4.0)
Plans Departing 5
Arriving 5
Stats Elevation 2,615 ft / 797 m (AMSL)
Location -20.000279° -63.527500°
Runways 1
Magnetic Variation 11.006° W
Sunrise 2018-05-27 10:41:32 UTC / 2018-05-27 06:41:32 Local
Sunset 2018-05-27 21:43:55 UTC / 2018-05-27 17:43:55 Local
Advertisement - Login to hide

Runways

ID Width Length Bearing (true) Bearing (mag) Surface Threshold Offset Overrun Length
15 56 ft / 17 m 3,940 ft / 1,201 m 144.00° 155.01° Concrete 0 ft / 0 m 0 ft / 0 m
33 56 ft / 17 m 3,940 ft / 1,201 m 324.00° 335.01° Concrete 0 ft / 0 m 0 ft / 0 m

Map

Weather


0- 5 10 15 20 25 30 35+ Temperature / ° C

Clouds and Precipitation
Forecast for 2018-05-27 12:00 UTC. Updated 5 hours ago

Ground ~20,000 ft ~40,000 ft Winds

METAR

SLCA 271600Z 18004KT 9999 FEW036 25/16 Q1017

TAF

Not found
Warning: Do not use this data for real-world aviation or navigation. No guarantee of current accuracy is given.